Philadelphia, PA

7:04 AM EDT on August 17, 2017 (GMT -0400)
Society Hill, Philadelphia | | Change Station

Elev 43 ft 39.94 °N, 75.15 °W | Updated 2 minutes ago

Clear
Clear
72.8 °F
Feels Like 74 °F
N
2.0
Wind Variable Wind from ENE
Gusts 5.0 mph

Today
High -- | Low -- °F
--% Chance of Precip.
Yesterday
High -- | Low -- °F
Precip. -- in
Pressure 30.05 in
Visibility 10.0 miles
Clouds Scattered Clouds 7500 ft
Scattered Clouds 28000 ft
Heat Index 74 °F
Dew Point 64 °F
Humidity 73%
Rainfall 0.00 in
Snow Depth Not available.
6:14 AM 7:54 PM
Waning Crescent, 24% visible
METAR KPHL 171054Z 06004KT 10SM SCT075 SCT280 21/17 A3005 RMK AO2 SLP174 T02110172 $
Pressure 30.05 in
Visibility 10.0 miles
Clouds Scattered Clouds 7500 ft
Scattered Clouds 28000 ft
Heat Index 74 °F
Dew Point 64 °F
Humidity 73%
Rainfall 0.00 in
Snow Depth Not available.
6:14 AM 7:54 PM
Waning Crescent, 24% visible
METAR KPHL 171054Z 06004KT 10SM SCT075 SCT280 21/17 A3005 RMK AO2 SLP174 T02110172 $

Get Severe Weather Alerts

Thanks for signing up!

Be on the lookout for a verification email in your inbox.

You'll start receiving the daily forecast at 6 AM.

×

10-Day Weather Forecast

Almanac

Astronomy

Aug. 17, 2017 Rise Set
Actual Time
Civil Twilight
Nautical Twilight
Astronomical Twilight
Moon
Length of Visible Light
Length of Day
Tomorrow will be .
, % of the Moon is Illuminated

Today's Extremes

State Highs State Lows

Community

WunderPhotos

Category 6

Welcome to Category 6. This is the collective home for Weather Underground's featured writeups by Dr. Jeff Masters (right), Bob Henson (left), Chris Burt, and other regular contributors.

Nearby

Air Quality

  Air Quality AQ Index Pollutant
Not available.

Snow Depth

Station Depth Elevation

Earthquake Activity

City Distance Mag. Time & Date
Minimum magnitude displayed is 2.5.

Coastal Water Temperatures

Place Temperature

Stations

Nearby Weather Stations

Station Location Temp. Windchill Dew Point Humidity Wind Precip. Elev Updated Type
                   

Watches & Warnings

There are currently no watches in effect.